sensor_id;sensor_type;location;lat;lon;timestamp;temperature;humidity
59007;DHT22;44792;52.760;6.726;2024-01-30T00:01:36;6.30;99.90
59007;DHT22;44792;52.760;6.726;2024-01-30T00:04:02;6.30;99.90
59007;DHT22;44792;52.760;6.726;2024-01-30T00:06:28;6.30;99.90
59007;DHT22;44792;52.760;6.726;2024-01-30T00:08:53;6.20;99.90
59007;DHT22;44792;52.760;6.726;2024-01-30T00:11:19;6.20;99.90
59007;DHT22;44792;52.760;6.726;2024-01-30T00:13:45;6.30;99.90
59007;DHT22;44792;52.760;6.726;2024-01-30T00:16:24;6.30;99.90
59007;DHT22;44792;52.760;6.726;2024-01-30T00:18:53;6.30;99.90
59007;DHT22;44792;52.760;6.726;2024-01-30T00:21:19;6.30;99.90
59007;DHT22;44792;52.760;6.726;2024-01-30T00:23:46;6.50;99.90
59007;DHT22;44792;52.760;6.726;2024-01-30T00:26:12;6.40;99.90
59007;DHT22;44792;52.760;6.726;2024-01-30T00:28:46;6.50;99.90
59007;DHT22;44792;52.760;6.726;2024-01-30T00:31:12;6.50;99.90
59007;DHT22;44792;52.760;6.726;2024-01-30T00:33:41;6.50;99.90
59007;DHT22;44792;52.760;6.726;2024-01-30T00:36:08;6.60;99.90
59007;DHT22;44792;52.760;6.726;2024-01-30T00:38:34;6.60;99.90
59007;DHT22;44792;52.760;6.726;2024-01-30T00:40:59;6.60;99.90
59007;DHT22;44792;52.760;6.726;2024-01-30T00:43:25;6.60;99.90
59007;DHT22;44792;52.760;6.726;2024-01-30T00:45:51;6.70;99.90
59007;DHT22;44792;52.760;6.726;2024-01-30T00:48:20;6.70;99.90
59007;DHT22;44792;52.760;6.726;2024-01-30T00:50:46;6.70;99.90
59007;DHT22;44792;52.760;6.726;2024-01-30T00:53:11;6.60;99.90
59007;DHT22;44792;52.760;6.726;2024-01-30T00:55:37;6.70;99.90
59007;DHT22;44792;52.760;6.726;2024-01-30T00:58:03;6.50;99.90
59007;DHT22;44792;52.760;6.726;2024-01-30T01:00:29;6.60;99.90
59007;DHT22;44792;52.760;6.726;2024-01-30T01:02:55;6.50;99.90
59007;DHT22;44792;52.760;6.726;2024-01-30T01:05:21;6.50;99.90
59007;DHT22;44792;52.760;6.726;2024-01-30T01:07:47;6.50;99.90
59007;DHT22;44792;52.760;6.726;2024-01-30T01:10:16;6.50;99.90
59007;DHT22;44792;52.760;6.726;2024-01-30T01:12:42;6.50;99.90
59007;DHT22;44792;52.760;6.726;2024-01-30T01:15:08;6.50;99.90
59007;DHT22;44792;52.760;6.726;2024-01-30T01:17:38;6.60;99.90
59007;DHT22;44792;52.760;6.726;2024-01-30T01:20:04;6.60;99.90
59007;DHT22;44792;52.760;6.726;2024-01-30T01:22:32;6.60;99.90
59007;DHT22;44792;52.760;6.726;2024-01-30T01:25:00;6.60;99.90
59007;DHT22;44792;52.760;6.726;2024-01-30T01:27:26;6.60;99.90
59007;DHT22;44792;52.760;6.726;2024-01-30T01:29:52;6.60;99.90
59007;DHT22;44792;52.760;6.726;2024-01-30T01:32:18;6.70;99.90
59007;DHT22;44792;52.760;6.726;2024-01-30T01:34:44;6.60;99.90
59007;DHT22;44792;52.760;6.726;2024-01-30T01:37:10;6.60;99.90
59007;DHT22;44792;52.760;6.726;2024-01-30T01:39:35;6.60;99.90
59007;DHT22;44792;52.760;6.726;2024-01-30T01:42:01;6.70;99.90
59007;DHT22;44792;52.760;6.726;2024-01-30T01:44:27;6.70;99.90
59007;DHT22;44792;52.760;6.726;2024-01-30T01:46:54;6.70;99.90
59007;DHT22;44792;52.760;6.726;2024-01-30T01:49:24;6.70;99.90
59007;DHT22;44792;52.760;6.726;2024-01-30T01:51:52;6.70;99.90
59007;DHT22;44792;52.760;6.726;2024-01-30T01:54:19;6.70;99.90
59007;DHT22;44792;52.760;6.726;2024-01-30T01:56:45;6.70;99.90
59007;DHT22;44792;52.760;6.726;2024-01-30T01:59:11;6.80;99.90
59007;DHT22;44792;52.760;6.726;2024-01-30T02:01:38;6.60;99.90
59007;DHT22;44792;52.760;6.726;2024-01-30T02:04:04;6.70;99.90
59007;DHT22;44792;52.760;6.726;2024-01-30T02:06:31;6.70;99.90
59007;DHT22;44792;52.760;6.726;2024-01-30T02:08:57;6.70;99.90
59007;DHT22;44792;52.760;6.726;2024-01-30T02:11:23;6.70;99.90
59007;DHT22;44792;52.760;6.726;2024-01-30T02:13:50;6.80;99.90
59007;DHT22;44792;52.760;6.726;2024-01-30T02:16:16;6.70;99.90
59007;DHT22;44792;52.760;6.726;2024-01-30T02:18:43;6.80;99.90
59007;DHT22;44792;52.760;6.726;2024-01-30T02:21:13;6.80;99.90
59007;DHT22;44792;52.760;6.726;2024-01-30T02:23:40;6.80;99.90
59007;DHT22;44792;52.760;6.726;2024-01-30T02:26:06;6.90;99.90
59007;DHT22;44792;52.760;6.726;2024-01-30T02:28:32;6.90;99.90
59007;DHT22;44792;52.760;6.726;2024-01-30T02:30:57;6.90;99.90
59007;DHT22;44792;52.760;6.726;2024-01-30T02:33:23;6.90;99.90
59007;DHT22;44792;52.760;6.726;2024-01-30T02:35:49;6.90;99.90
59007;DHT22;44792;52.760;6.726;2024-01-30T02:38:16;6.90;99.90
59007;DHT22;44792;52.760;6.726;2024-01-30T02:40:42;7.00;99.90
59007;DHT22;44792;52.760;6.726;2024-01-30T02:43:08;7.00;99.90
59007;DHT22;44792;52.760;6.726;2024-01-30T02:45:33;7.00;99.90
59007;DHT22;44792;52.760;6.726;2024-01-30T02:47:59;7.00;99.90
59007;DHT22;44792;52.760;6.726;2024-01-30T02:50:25;7.00;99.90
59007;DHT22;44792;52.760;6.726;2024-01-30T02:52:51;7.00;99.90
59007;DHT22;44792;52.760;6.726;2024-01-30T02:55:16;7.10;99.90
59007;DHT22;44792;52.760;6.726;2024-01-30T02:57:43;7.10;99.90
59007;DHT22;44792;52.760;6.726;2024-01-30T03:00:09;7.00;99.90
59007;DHT22;44792;52.760;6.726;2024-01-30T03:02:36;7.00;99.90
59007;DHT22;44792;52.760;6.726;2024-01-30T03:05:02;7.00;99.90
59007;DHT22;44792;52.760;6.726;2024-01-30T03:07:29;7.00;99.90
59007;DHT22;44792;52.760;6.726;2024-01-30T03:09:56;7.10;99.90
59007;DHT22;44792;52.760;6.726;2024-01-30T03:12:22;7.10;99.90
59007;DHT22;44792;52.760;6.726;2024-01-30T03:14:48;7.10;99.90
59007;DHT22;44792;52.760;6.726;2024-01-30T03:17:14;7.10;99.90
59007;DHT22;44792;52.760;6.726;2024-01-30T03:19:40;7.20;99.90
59007;DHT22;44792;52.760;6.726;2024-01-30T03:22:06;7.10;99.90
59007;DHT22;44792;52.760;6.726;2024-01-30T03:24:32;7.20;99.90
59007;DHT22;44792;52.760;6.726;2024-01-30T03:26:57;7.10;99.90
59007;DHT22;44792;52.760;6.726;2024-01-30T03:29:23;7.10;99.90
59007;DHT22;44792;52.760;6.726;2024-01-30T03:31:49;7.10;99.90
59007;DHT22;44792;52.760;6.726;2024-01-30T03:34:14;7.10;99.90
59007;DHT22;44792;52.760;6.726;2024-01-30T03:36:40;7.00;99.90
59007;DHT22;44792;52.760;6.726;2024-01-30T03:39:06;7.10;99.90
59007;DHT22;44792;52.760;6.726;2024-01-30T03:41:32;7.00;99.90
59007;DHT22;44792;52.760;6.726;2024-01-30T03:43:57;7.10;99.90
59007;DHT22;44792;52.760;6.726;2024-01-30T03:46:23;7.00;99.90
59007;DHT22;44792;52.760;6.726;2024-01-30T03:48:49;7.00;99.90
59007;DHT22;44792;52.760;6.726;2024-01-30T03:51:15;7.00;99.90
59007;DHT22;44792;52.760;6.726;2024-01-30T03:53:42;7.00;99.90
59007;DHT22;44792;52.760;6.726;2024-01-30T03:56:08;7.10;99.90
59007;DHT22;44792;52.760;6.726;2024-01-30T03:58:34;7.10;99.90
59007;DHT22;44792;52.760;6.726;2024-01-30T04:01:00;7.10;99.90
59007;DHT22;44792;52.760;6.726;2024-01-30T04:03:25;7.10;99.90
59007;DHT22;44792;52.760;6.726;2024-01-30T04:05:52;7.10;99.90
59007;DHT22;44792;52.760;6.726;2024-01-30T04:08:18;7.10;99.90
59007;DHT22;44792;52.760;6.726;2024-01-30T04:10:44;7.10;99.90
59007;DHT22;44792;52.760;6.726;2024-01-30T04:13:10;7.10;99.90
59007;DHT22;44792;52.760;6.726;2024-01-30T04:15:36;7.20;99.90
59007;DHT22;44792;52.760;6.726;2024-01-30T04:18:01;7.20;99.90
59007;DHT22;44792;52.760;6.726;2024-01-30T04:20:27;7.20;99.90
59007;DHT22;44792;52.760;6.726;2024-01-30T04:22:53;7.20;99.90
59007;DHT22;44792;52.760;6.726;2024-01-30T04:25:19;7.20;99.90
59007;DHT22;44792;52.760;6.726;2024-01-30T04:27:44;7.20;99.90
59007;DHT22;44792;52.760;6.726;2024-01-30T04:30:10;7.20;99.90
59007;DHT22;44792;52.760;6.726;2024-01-30T04:32:37;7.20;99.90
59007;DHT22;44792;52.760;6.726;2024-01-30T04:35:03;7.20;99.90
59007;DHT22;44792;52.760;6.726;2024-01-30T04:37:29;7.30;99.90
59007;DHT22;44792;52.760;6.726;2024-01-30T04:39:55;7.20;99.90
59007;DHT22;44792;52.760;6.726;2024-01-30T04:42:20;7.30;99.90
59007;DHT22;44792;52.760;6.726;2024-01-30T04:44:46;7.30;99.90
59007;DHT22;44792;52.760;6.726;2024-01-30T04:47:12;7.30;99.90
59007;DHT22;44792;52.760;6.726;2024-01-30T04:49:41;7.30;99.90
59007;DHT22;44792;52.760;6.726;2024-01-30T04:52:07;7.30;99.90
59007;DHT22;44792;52.760;6.726;2024-01-30T04:54:34;7.30;99.90
59007;DHT22;44792;52.760;6.726;2024-01-30T04:57:00;7.30;99.90
59007;DHT22;44792;52.760;6.726;2024-01-30T04:59:26;7.30;99.90
59007;DHT22;44792;52.760;6.726;2024-01-30T05:01:51;7.30;99.90
59007;DHT22;44792;52.760;6.726;2024-01-30T05:04:17;7.40;99.90
59007;DHT22;44792;52.760;6.726;2024-01-30T05:06:43;7.30;99.90
59007;DHT22;44792;52.760;6.726;2024-01-30T05:09:09;7.30;99.90
59007;DHT22;44792;52.760;6.726;2024-01-30T05:11:39;7.30;99.90
59007;DHT22;44792;52.760;6.726;2024-01-30T05:14:05;7.30;99.90
59007;DHT22;44792;52.760;6.726;2024-01-30T05:16:31;7.30;99.90
59007;DHT22;44792;52.760;6.726;2024-01-30T05:18:58;7.40;99.90
59007;DHT22;44792;52.760;6.726;2024-01-30T05:21:23;7.40;99.90
59007;DHT22;44792;52.760;6.726;2024-01-30T05:23:49;7.40;99.90
59007;DHT22;44792;52.760;6.726;2024-01-30T05:26:15;7.40;99.90
59007;DHT22;44792;52.760;6.726;2024-01-30T05:28:41;7.40;99.90
59007;DHT22;44792;52.760;6.726;2024-01-30T05:31:06;7.40;99.90
59007;DHT22;44792;52.760;6.726;2024-01-30T05:33:32;7.40;99.90
59007;DHT22;44792;52.760;6.726;2024-01-30T05:35:58;7.40;99.90
59007;DHT22;44792;52.760;6.726;2024-01-30T05:38:23;7.40;99.90
59007;DHT22;44792;52.760;6.726;2024-01-30T05:40:49;7.50;99.90
59007;DHT22;44792;52.760;6.726;2024-01-30T05:43:15;7.40;99.90
59007;DHT22;44792;52.760;6.726;2024-01-30T05:45:41;7.40;99.90
59007;DHT22;44792;52.760;6.726;2024-01-30T05:48:06;7.40;99.90
59007;DHT22;44792;52.760;6.726;2024-01-30T05:50:32;7.40;99.90
59007;DHT22;44792;52.760;6.726;2024-01-30T05:52:58;7.40;99.90
59007;DHT22;44792;52.760;6.726;2024-01-30T05:55:23;7.40;99.90
59007;DHT22;44792;52.760;6.726;2024-01-30T05:57:49;7.40;99.90
59007;DHT22;44792;52.760;6.726;2024-01-30T06:00:16;7.40;99.90
59007;DHT22;44792;52.760;6.726;2024-01-30T06:02:42;7.30;99.90
59007;DHT22;44792;52.760;6.726;2024-01-30T06:05:08;7.30;99.90
59007;DHT22;44792;52.760;6.726;2024-01-30T06:07:34;7.30;99.90
59007;DHT22;44792;52.760;6.726;2024-01-30T06:09:59;7.30;99.90
59007;DHT22;44792;52.760;6.726;2024-01-30T06:12:27;7.30;99.90
59007;DHT22;44792;52.760;6.726;2024-01-30T06:14:53;7.40;99.90
59007;DHT22;44792;52.760;6.726;2024-01-30T06:17:22;7.40;99.90
59007;DHT22;44792;52.760;6.726;2024-01-30T06:19:48;7.30;99.90
59007;DHT22;44792;52.760;6.726;2024-01-30T06:22:14;7.40;99.90
59007;DHT22;44792;52.760;6.726;2024-01-30T06:24:39;7.30;99.90
59007;DHT22;44792;52.760;6.726;2024-01-30T06:27:05;7.30;99.90
59007;DHT22;44792;52.760;6.726;2024-01-30T06:29:31;7.40;99.90
59007;DHT22;44792;52.760;6.726;2024-01-30T06:31:56;7.30;99.90
59007;DHT22;44792;52.760;6.726;2024-01-30T06:34:22;7.30;99.90
59007;DHT22;44792;52.760;6.726;2024-01-30T06:36:48;7.30;99.90
59007;DHT22;44792;52.760;6.726;2024-01-30T06:39:14;7.40;99.90
59007;DHT22;44792;52.760;6.726;2024-01-30T06:41:39;7.30;99.90
59007;DHT22;44792;52.760;6.726;2024-01-30T06:44:05;7.40;99.90
59007;DHT22;44792;52.760;6.726;2024-01-30T06:46:33;7.30;99.90
59007;DHT22;44792;52.760;6.726;2024-01-30T06:48:59;7.40;99.90
59007;DHT22;44792;52.760;6.726;2024-01-30T06:51:25;7.40;99.90
59007;DHT22;44792;52.760;6.726;2024-01-30T06:53:51;7.40;99.90
59007;DHT22;44792;52.760;6.726;2024-01-30T06:56:16;7.40;99.90
59007;DHT22;44792;52.760;6.726;2024-01-30T06:58:47;7.40;99.90
59007;DHT22;44792;52.760;6.726;2024-01-30T07:01:13;7.40;99.90
59007;DHT22;44792;52.760;6.726;2024-01-30T07:03:39;7.40;99.90
59007;DHT22;44792;52.760;6.726;2024-01-30T07:06:05;7.40;99.90
59007;DHT22;44792;52.760;6.726;2024-01-30T07:08:31;7.40;99.90
59007;DHT22;44792;52.760;6.726;2024-01-30T07:10:56;7.40;99.90
59007;DHT22;44792;52.760;6.726;2024-01-30T07:13:22;7.40;99.90
59007;DHT22;44792;52.760;6.726;2024-01-30T07:15:48;7.40;99.90
59007;DHT22;44792;52.760;6.726;2024-01-30T07:18:13;7.40;99.90
59007;DHT22;44792;52.760;6.726;2024-01-30T07:20:39;7.50;99.90
59007;DHT22;44792;52.760;6.726;2024-01-30T07:23:13;7.50;99.90
59007;DHT22;44792;52.760;6.726;2024-01-30T07:25:41;7.50;99.90
59007;DHT22;44792;52.760;6.726;2024-01-30T07:28:07;7.50;99.90
59007;DHT22;44792;52.760;6.726;2024-01-30T07:30:35;7.50;99.90
59007;DHT22;44792;52.760;6.726;2024-01-30T07:33:01;7.50;99.90
59007;DHT22;44792;52.760;6.726;2024-01-30T07:35:26;7.40;99.90
59007;DHT22;44792;52.760;6.726;2024-01-30T07:37:52;7.50;99.90
59007;DHT22;44792;52.760;6.726;2024-01-30T07:40:18;7.50;99.90
59007;DHT22;44792;52.760;6.726;2024-01-30T07:42:43;7.50;99.90
59007;DHT22;44792;52.760;6.726;2024-01-30T07:45:09;7.50;99.90
59007;DHT22;44792;52.760;6.726;2024-01-30T07:47:35;7.60;99.90
59007;DHT22;44792;52.760;6.726;2024-01-30T07:50:01;7.50;99.90
59007;DHT22;44792;52.760;6.726;2024-01-30T07:52:27;7.60;99.90
59007;DHT22;44792;52.760;6.726;2024-01-30T07:54:53;7.60;99.90
59007;DHT22;44792;52.760;6.726;2024-01-30T07:57:18;7.60;99.90
59007;DHT22;44792;52.760;6.726;2024-01-30T07:59:44;7.60;99.90
59007;DHT22;44792;52.760;6.726;2024-01-30T08:02:12;7.60;99.90
59007;DHT22;44792;52.760;6.726;2024-01-30T08:04:38;7.60;99.90
59007;DHT22;44792;52.760;6.726;2024-01-30T08:07:04;7.60;99.90
59007;DHT22;44792;52.760;6.726;2024-01-30T08:09:30;7.60;99.90
59007;DHT22;44792;52.760;6.726;2024-01-30T08:11:56;7.70;99.90
59007;DHT22;44792;52.760;6.726;2024-01-30T08:14:21;7.60;99.90
59007;DHT22;44792;52.760;6.726;2024-01-30T08:16:47;7.70;99.90
59007;DHT22;44792;52.760;6.726;2024-01-30T08:19:14;7.70;99.90
59007;DHT22;44792;52.760;6.726;2024-01-30T08:21:40;7.70;99.90
59007;DHT22;44792;52.760;6.726;2024-01-30T08:24:06;7.70;99.90
59007;DHT22;44792;52.760;6.726;2024-01-30T08:26:32;7.70;99.90
59007;DHT22;44792;52.760;6.726;2024-01-30T08:28:58;7.80;99.90
59007;DHT22;44792;52.760;6.726;2024-01-30T08:31:24;7.70;99.90
59007;DHT22;44792;52.760;6.726;2024-01-30T08:33:49;7.80;99.90
59007;DHT22;44792;52.760;6.726;2024-01-30T08:36:16;7.80;99.90
59007;DHT22;44792;52.760;6.726;2024-01-30T08:38:42;7.80;99.90
59007;DHT22;44792;52.760;6.726;2024-01-30T08:41:08;7.80;99.90
59007;DHT22;44792;52.760;6.726;2024-01-30T08:43:34;7.80;99.90
59007;DHT22;44792;52.760;6.726;2024-01-30T08:46:00;7.90;99.90
59007;DHT22;44792;52.760;6.726;2024-01-30T08:48:26;7.90;99.90
59007;DHT22;44792;52.760;6.726;2024-01-30T08:50:52;7.90;99.90
59007;DHT22;44792;52.760;6.726;2024-01-30T08:53:17;7.90;99.90
59007;DHT22;44792;52.760;6.726;2024-01-30T08:55:44;8.00;99.90
59007;DHT22;44792;52.760;6.726;2024-01-30T08:58:10;8.00;99.90
59007;DHT22;44792;52.760;6.726;2024-01-30T09:00:35;8.00;99.90
59007;DHT22;44792;52.760;6.726;2024-01-30T09:03:01;8.00;99.90
59007;DHT22;44792;52.760;6.726;2024-01-30T09:05:27;8.10;99.90
59007;DHT22;44792;52.760;6.726;2024-01-30T09:07:52;8.10;99.90
59007;DHT22;44792;52.760;6.726;2024-01-30T09:10:18;8.10;99.90
59007;DHT22;44792;52.760;6.726;2024-01-30T09:12:44;8.10;99.90
59007;DHT22;44792;52.760;6.726;2024-01-30T09:15:10;8.20;99.90
59007;DHT22;44792;52.760;6.726;2024-01-30T09:17:36;8.20;99.90
59007;DHT22;44792;52.760;6.726;2024-01-30T09:20:01;8.20;99.90
59007;DHT22;44792;52.760;6.726;2024-01-30T09:22:27;8.20;99.90
59007;DHT22;44792;52.760;6.726;2024-01-30T09:24:53;8.20;99.90
59007;DHT22;44792;52.760;6.726;2024-01-30T09:27:18;8.20;99.90
59007;DHT22;44792;52.760;6.726;2024-01-30T09:29:44;8.30;99.90
59007;DHT22;44792;52.760;6.726;2024-01-30T09:32:10;8.30;99.90
59007;DHT22;44792;52.760;6.726;2024-01-30T09:34:35;8.30;99.90
59007;DHT22;44792;52.760;6.726;2024-01-30T09:37:01;8.40;99.90
59007;DHT22;44792;52.760;6.726;2024-01-30T09:39:27;8.50;99.90
59007;DHT22;44792;52.760;6.726;2024-01-30T09:42:05;8.60;99.90
59007;DHT22;44792;52.760;6.726;2024-01-30T09:44:32;8.60;99.90
59007;DHT22;44792;52.760;6.726;2024-01-30T09:47:00;8.60;99.90
59007;DHT22;44792;52.760;6.726;2024-01-30T09:49:31;8.70;99.90
59007;DHT22;44792;52.760;6.726;2024-01-30T09:51:57;8.70;99.90
59007;DHT22;44792;52.760;6.726;2024-01-30T09:54:23;8.70;99.90
59007;DHT22;44792;52.760;6.726;2024-01-30T09:56:49;8.70;99.90
59007;DHT22;44792;52.760;6.726;2024-01-30T09:59:15;8.80;99.90
59007;DHT22;44792;52.760;6.726;2024-01-30T10:01:44;8.80;99.90
59007;DHT22;44792;52.760;6.726;2024-01-30T10:04:10;8.80;99.90
59007;DHT22;44792;52.760;6.726;2024-01-30T10:06:36;8.80;99.90
59007;DHT22;44792;52.760;6.726;2024-01-30T10:09:02;8.90;99.90
59007;DHT22;44792;52.760;6.726;2024-01-30T10:11:28;9.00;99.90
59007;DHT22;44792;52.760;6.726;2024-01-30T10:13:54;9.00;99.90
59007;DHT22;44792;52.760;6.726;2024-01-30T10:16:19;9.10;99.90
59007;DHT22;44792;52.760;6.726;2024-01-30T10:18:45;9.10;99.90
59007;DHT22;44792;52.760;6.726;2024-01-30T10:21:11;9.10;99.90
59007;DHT22;44792;52.760;6.726;2024-01-30T10:23:38;9.30;99.90
59007;DHT22;44792;52.760;6.726;2024-01-30T10:26:04;9.30;99.90
59007;DHT22;44792;52.760;6.726;2024-01-30T10:28:30;9.30;99.90
59007;DHT22;44792;52.760;6.726;2024-01-30T10:31:02;9.30;99.90
59007;DHT22;44792;52.760;6.726;2024-01-30T10:33:31;9.30;99.90
59007;DHT22;44792;52.760;6.726;2024-01-30T10:36:00;9.40;99.90
59007;DHT22;44792;52.760;6.726;2024-01-30T10:38:29;9.50;99.90
59007;DHT22;44792;52.760;6.726;2024-01-30T10:41:00;9.50;99.90
59007;DHT22;44792;52.760;6.726;2024-01-30T10:43:31;9.50;99.90
59007;DHT22;44792;52.760;6.726;2024-01-30T10:48:50;9.60;99.90
59007;DHT22;44792;52.760;6.726;2024-01-30T10:51:16;9.60;99.90
59007;DHT22;44792;52.760;6.726;2024-01-30T10:53:46;9.60;99.90
59007;DHT22;44792;52.760;6.726;2024-01-30T10:56:13;9.70;99.90
59007;DHT22;44792;52.760;6.726;2024-01-30T10:58:39;9.70;99.90
59007;DHT22;44792;52.760;6.726;2024-01-30T11:01:06;9.70;99.90
59007;DHT22;44792;52.760;6.726;2024-01-30T11:03:33;9.70;99.90
59007;DHT22;44792;52.760;6.726;2024-01-30T11:06:02;9.70;99.90
59007;DHT22;44792;52.760;6.726;2024-01-30T11:08:31;9.70;99.90
59007;DHT22;44792;52.760;6.726;2024-01-30T11:10:58;9.80;99.90
59007;DHT22;44792;52.760;6.726;2024-01-30T11:13:30;9.90;99.90
59007;DHT22;44792;52.760;6.726;2024-01-30T11:16:03;9.80;99.90
59007;DHT22;44792;52.760;6.726;2024-01-30T11:18:30;9.80;99.90
59007;DHT22;44792;52.760;6.726;2024-01-30T11:20:57;9.80;99.90
59007;DHT22;44792;52.760;6.726;2024-01-30T11:23:23;9.90;99.90
59007;DHT22;44792;52.760;6.726;2024-01-30T11:25:52;9.90;99.90
59007;DHT22;44792;52.760;6.726;2024-01-30T11:28:21;9.90;99.90
59007;DHT22;44792;52.760;6.726;2024-01-30T11:30:47;9.90;99.90
59007;DHT22;44792;52.760;6.726;2024-01-30T11:33:27;10.00;99.90
59007;DHT22;44792;52.760;6.726;2024-01-30T11:35:53;10.00;99.90
59007;DHT22;44792;52.760;6.726;2024-01-30T11:38:19;9.90;99.90
59007;DHT22;44792;52.760;6.726;2024-01-30T11:40:45;9.90;99.90
59007;DHT22;44792;52.760;6.726;2024-01-30T11:43:11;9.90;99.90
59007;DHT22;44792;52.760;6.726;2024-01-30T11:45:37;9.90;99.90
59007;DHT22;44792;52.760;6.726;2024-01-30T11:48:05;10.00;99.90
59007;DHT22;44792;52.760;6.726;2024-01-30T11:50:35;10.00;99.90
59007;DHT22;44792;52.760;6.726;2024-01-30T11:53:01;10.00;99.90
59007;DHT22;44792;52.760;6.726;2024-01-30T11:55:28;10.00;99.90
59007;DHT22;44792;52.760;6.726;2024-01-30T11:57:57;10.00;99.90
59007;DHT22;44792;52.760;6.726;2024-01-30T12:00:24;10.00;99.90
59007;DHT22;44792;52.760;6.726;2024-01-30T12:02:51;10.00;99.90
59007;DHT22;44792;52.760;6.726;2024-01-30T12:05:19;9.90;99.90
59007;DHT22;44792;52.760;6.726;2024-01-30T12:07:46;10.00;99.90
59007;DHT22;44792;52.760;6.726;2024-01-30T12:10:13;10.00;99.90
59007;DHT22;44792;52.760;6.726;2024-01-30T12:12:54;10.00;99.90
59007;DHT22;44792;52.760;6.726;2024-01-30T12:15:22;10.10;99.90
59007;DHT22;44792;52.760;6.726;2024-01-30T12:17:48;10.10;99.90
59007;DHT22;44792;52.760;6.726;2024-01-30T12:20:17;10.10;99.90
59007;DHT22;44792;52.760;6.726;2024-01-30T12:22:44;10.10;99.90
59007;DHT22;44792;52.760;6.726;2024-01-30T12:25:28;10.10;99.90
59007;DHT22;44792;52.760;6.726;2024-01-30T12:27:54;10.10;99.90
59007;DHT22;44792;52.760;6.726;2024-01-30T12:30:20;10.20;99.90
59007;DHT22;44792;52.760;6.726;2024-01-30T12:32:47;10.20;99.90
59007;DHT22;44792;52.760;6.726;2024-01-30T12:35:16;10.20;99.90
59007;DHT22;44792;52.760;6.726;2024-01-30T12:37:43;10.20;99.90
59007;DHT22;44792;52.760;6.726;2024-01-30T12:40:10;10.30;99.90
59007;DHT22;44792;52.760;6.726;2024-01-30T12:42:37;10.30;99.90
59007;DHT22;44792;52.760;6.726;2024-01-30T12:45:03;10.40;99.90
59007;DHT22;44792;52.760;6.726;2024-01-30T12:47:30;10.40;99.90
59007;DHT22;44792;52.760;6.726;2024-01-30T12:49:56;10.40;99.90
59007;DHT22;44792;52.760;6.726;2024-01-30T12:52:22;10.50;99.90
59007;DHT22;44792;52.760;6.726;2024-01-30T12:54:48;10.40;99.90
59007;DHT22;44792;52.760;6.726;2024-01-30T12:57:14;10.40;99.90
59007;DHT22;44792;52.760;6.726;2024-01-30T12:59:40;10.40;99.90
59007;DHT22;44792;52.760;6.726;2024-01-30T13:02:06;10.50;99.90
59007;DHT22;44792;52.760;6.726;2024-01-30T13:04:32;10.50;99.90
59007;DHT22;44792;52.760;6.726;2024-01-30T13:06:58;10.50;99.90
59007;DHT22;44792;52.760;6.726;2024-01-30T13:09:26;10.40;99.90
59007;DHT22;44792;52.760;6.726;2024-01-30T13:11:51;10.40;99.90
59007;DHT22;44792;52.760;6.726;2024-01-30T13:14:18;10.40;99.90
59007;DHT22;44792;52.760;6.726;2024-01-30T13:16:43;10.40;99.90
59007;DHT22;44792;52.760;6.726;2024-01-30T13:19:09;10.30;99.90
59007;DHT22;44792;52.760;6.726;2024-01-30T13:21:35;10.40;99.90
59007;DHT22;44792;52.760;6.726;2024-01-30T13:24:00;10.40;99.90
59007;DHT22;44792;52.760;6.726;2024-01-30T13:26:26;10.30;99.90
59007;DHT22;44792;52.760;6.726;2024-01-30T13:28:52;10.30;99.90
59007;DHT22;44792;52.760;6.726;2024-01-30T13:31:18;10.30;99.90
59007;DHT22;44792;52.760;6.726;2024-01-30T13:33:45;10.20;99.90
59007;DHT22;44792;52.760;6.726;2024-01-30T13:36:11;10.40;99.90
59007;DHT22;44792;52.760;6.726;2024-01-30T13:38:37;10.50;99.90
59007;DHT22;44792;52.760;6.726;2024-01-30T13:41:03;10.60;99.90
59007;DHT22;44792;52.760;6.726;2024-01-30T13:43:29;10.60;99.90
59007;DHT22;44792;52.760;6.726;2024-01-30T13:45:55;10.60;99.90
59007;DHT22;44792;52.760;6.726;2024-01-30T13:48:21;10.60;99.90
59007;DHT22;44792;52.760;6.726;2024-01-30T13:50:47;10.60;99.90
59007;DHT22;44792;52.760;6.726;2024-01-30T13:53:13;10.50;99.90
59007;DHT22;44792;52.760;6.726;2024-01-30T13:55:39;10.50;99.90
59007;DHT22;44792;52.760;6.726;2024-01-30T13:58:05;10.50;99.90
59007;DHT22;44792;52.760;6.726;2024-01-30T14:00:31;10.50;99.90
59007;DHT22;44792;52.760;6.726;2024-01-30T14:02:57;10.40;99.90
59007;DHT22;44792;52.760;6.726;2024-01-30T14:05:24;10.40;99.90
59007;DHT22;44792;52.760;6.726;2024-01-30T14:07:51;10.30;99.90
59007;DHT22;44792;52.760;6.726;2024-01-30T14:10:17;10.30;99.90
59007;DHT22;44792;52.760;6.726;2024-01-30T14:12:43;10.30;99.90
59007;DHT22;44792;52.760;6.726;2024-01-30T14:15:10;10.30;99.90
59007;DHT22;44792;52.760;6.726;2024-01-30T14:17:36;10.30;99.90
59007;DHT22;44792;52.760;6.726;2024-01-30T14:20:06;10.20;99.90
59007;DHT22;44792;52.760;6.726;2024-01-30T14:22:33;10.20;99.90
59007;DHT22;44792;52.760;6.726;2024-01-30T14:24:59;10.20;99.90
59007;DHT22;44792;52.760;6.726;2024-01-30T14:27:25;10.20;99.90
59007;DHT22;44792;52.760;6.726;2024-01-30T14:29:50;10.20;99.90
59007;DHT22;44792;52.760;6.726;2024-01-30T14:32:16;10.20;99.90
59007;DHT22;44792;52.760;6.726;2024-01-30T14:34:42;10.20;99.90
59007;DHT22;44792;52.760;6.726;2024-01-30T14:37:08;10.20;99.90
59007;DHT22;44792;52.760;6.726;2024-01-30T14:39:33;10.20;99.90
59007;DHT22;44792;52.760;6.726;2024-01-30T14:41:59;10.20;99.90
59007;DHT22;44792;52.760;6.726;2024-01-30T14:44:25;10.10;99.90
59007;DHT22;44792;52.760;6.726;2024-01-30T14:46:51;10.10;99.90
59007;DHT22;44792;52.760;6.726;2024-01-30T14:49:17;10.10;99.90
59007;DHT22;44792;52.760;6.726;2024-01-30T14:51:43;10.10;99.90
59007;DHT22;44792;52.760;6.726;2024-01-30T14:54:08;10.10;99.90
59007;DHT22;44792;52.760;6.726;2024-01-30T14:56:34;10.10;99.90
59007;DHT22;44792;52.760;6.726;2024-01-30T14:59:00;10.00;99.90
59007;DHT22;44792;52.760;6.726;2024-01-30T15:01:26;10.10;99.90
59007;DHT22;44792;52.760;6.726;2024-01-30T15:03:52;10.10;99.90
59007;DHT22;44792;52.760;6.726;2024-01-30T15:06:18;10.00;99.90
59007;DHT22;44792;52.760;6.726;2024-01-30T15:08:44;10.00;99.90
59007;DHT22;44792;52.760;6.726;2024-01-30T15:11:10;10.00;99.90
59007;DHT22;44792;52.760;6.726;2024-01-30T15:13:36;10.00;99.90
59007;DHT22;44792;52.760;6.726;2024-01-30T15:16:03;10.00;99.90
59007;DHT22;44792;52.760;6.726;2024-01-30T15:18:31;9.90;99.90
59007;DHT22;44792;52.760;6.726;2024-01-30T15:20:56;9.90;99.90
59007;DHT22;44792;52.760;6.726;2024-01-30T15:23:22;9.90;99.90
59007;DHT22;44792;52.760;6.726;2024-01-30T15:25:48;9.90;99.90
59007;DHT22;44792;52.760;6.726;2024-01-30T15:28:14;9.80;99.90
59007;DHT22;44792;52.760;6.726;2024-01-30T15:30:41;9.70;99.90
59007;DHT22;44792;52.760;6.726;2024-01-30T15:33:09;9.70;99.90
59007;DHT22;44792;52.760;6.726;2024-01-30T15:35:35;9.80;99.90
59007;DHT22;44792;52.760;6.726;2024-01-30T15:38:01;9.70;99.90
59007;DHT22;44792;52.760;6.726;2024-01-30T15:40:27;9.70;99.90